createdAt,value
2022-10-29T00:04:17.822Z,99.99
2022-10-29T00:19:18.398Z,99.99
2022-10-29T00:34:18.020Z,99.99
2022-10-29T00:49:18.075Z,99.99
2022-10-29T01:04:18.204Z,99.99
2022-10-29T01:19:18.315Z,99.99
2022-10-29T01:34:18.392Z,99.99
2022-10-29T01:49:18.952Z,99.40
2022-10-29T02:04:18.586Z,96.10
2022-10-29T02:19:18.661Z,93.10
2022-10-29T02:34:18.762Z,88.18
2022-10-29T02:49:18.850Z,87.46
2022-10-29T03:04:19.478Z,82.50
2022-10-29T03:19:19.070Z,83.71
2022-10-29T03:34:19.674Z,81.07
2022-10-29T03:49:19.761Z,80.53
2022-10-29T04:04:19.379Z,79.92
2022-10-29T04:19:19.990Z,82.12
2022-10-29T04:34:20.573Z,75.83
2022-10-29T04:49:21.709Z,78.41
2022-10-29T05:04:22.816Z,74.68
2022-10-29T05:19:22.408Z,72.45
2022-10-29T05:34:23.064Z,65.84
2022-10-29T05:49:24.146Z,65.44
2022-10-29T06:04:24.718Z,69.02
2022-10-29T06:19:25.467Z,68.88
2022-10-29T06:34:26.457Z,71.02
2022-10-29T06:49:27.019Z,64.51
2022-10-29T07:04:27.099Z,60.61
2022-10-29T07:19:27.182Z,60.36
2022-10-29T07:34:27.824Z,62.23
2022-10-29T07:49:28.413Z,77.01
2022-10-29T08:04:28.013Z,87.32
2022-10-29T08:19:28.107Z,93.05
2022-10-29T08:34:28.347Z,97.71
2022-10-29T08:49:28.345Z,99.99
2022-10-29T09:04:28.458Z,99.99
2022-10-29T09:19:28.636Z,99.99
2022-10-29T09:34:28.697Z,99.99
2022-10-29T09:49:28.797Z,99.99
2022-10-29T10:04:28.925Z,99.99
2022-10-29T10:19:29.613Z,99.99
2022-10-29T10:34:30.063Z,99.71
2022-10-29T10:49:30.640Z,96.56
2022-10-29T11:04:30.267Z,94.01
2022-10-29T11:19:32.748Z,93.02
2022-10-29T11:34:35.944Z,90.23
2022-10-29T11:49:36.070Z,88.49
2022-10-29T12:04:37.448Z,86.89
2022-10-29T12:19:38.004Z,88.83
2022-10-29T12:34:38.618Z,86.85
2022-10-29T12:49:38.207Z,83.43
2022-10-29T13:04:38.372Z,84.47
2022-10-29T13:19:38.483Z,85.11
2022-10-29T13:34:38.547Z,86.55
2022-10-29T13:49:38.648Z,88.19
2022-10-29T14:04:38.749Z,89.58
2022-10-29T14:19:39.308Z,91.28
2022-10-29T14:34:39.430Z,95.92
2022-10-29T14:49:40.033Z,99.21
2022-10-29T15:04:40.135Z,99.99
2022-10-29T15:19:40.279Z,99.99
2022-10-29T15:34:41.376Z,99.99
2022-10-29T15:49:41.466Z,99.99
2022-10-29T16:04:41.047Z,99.08
2022-10-29T16:19:41.139Z,97.91
2022-10-29T16:34:41.765Z,95.58
2022-10-29T16:49:41.906Z,94.51
2022-10-29T17:04:42.554Z,94.30
2022-10-29T17:19:43.731Z,91.00
2022-10-29T17:34:44.281Z,90.34
2022-10-29T17:49:45.349Z,87.79
2022-10-29T18:04:45.934Z,85.56
2022-10-29T18:19:46.026Z,85.53
2022-10-29T18:34:46.673Z,86.49
2022-10-29T18:49:47.738Z,85.62
2022-10-29T19:04:49.186Z,83.59
2022-10-29T19:19:49.219Z,80.58
2022-10-29T19:34:49.848Z,80.41
2022-10-29T19:49:49.917Z,82.48
2022-10-29T20:04:49.536Z,81.20
2022-10-29T20:19:49.624Z,77.87
2022-10-29T20:34:50.232Z,69.84
2022-10-29T20:49:49.857Z,68.62
2022-10-29T21:04:50.475Z,70.04
2022-10-29T21:19:50.541Z,66.07
2022-10-29T21:34:51.147Z,64.44
2022-10-29T21:49:51.843Z,61.79
2022-10-29T22:04:51.851Z,62.63
2022-10-29T22:19:51.940Z,62.13
2022-10-29T22:34:52.574Z,61.82
2022-10-29T22:49:53.125Z,59.17
2022-10-29T23:04:53.261Z,60.70
2022-10-29T23:19:54.353Z,61.65
2022-10-29T23:34:54.467Z,63.51
2022-10-29T23:49:55.064Z,63.03
